Diaz, Arkansas
Current Conditions -  °F | °C
As of 3:56 PM on Tuesday 21 Oct 2014 (Local Time) from KM19 Reporting Station
Clear Clear  
Wind Chill: 76°   Ceiling: Unl
Heat Index: 76°   Visibility: 10mi
Dew Point: 46°   Wind: 8mph
Humidity: 34%   Direction: 10°N
Pressure: 30.07"   Gusts: NA
Location:  35.64°N, 91.27°W
Report Text: KM19 212056Z AUTO 01007KT 10SM CLR 24/08 A3007 RMK AO2 56015 T02440077 SLP180
Loading
Personal Weather Stations






























Interactive Weather Map New forecast layout! Learn more

10-Day Weather Forecast

Advertisements
Track Severe Weather on mobile